createdAt,value
2023-05-20T00:00:49.176Z,14.50
2023-05-20T00:03:17.199Z,14.50
2023-05-20T00:05:44.532Z,14.50
2023-05-20T00:08:11.724Z,14.50
2023-05-20T00:10:39.434Z,14.50
2023-05-20T00:13:06.862Z,14.60
2023-05-20T00:15:37.457Z,14.60
2023-05-20T00:18:05.255Z,14.60
2023-05-20T00:20:33.120Z,14.60
2023-05-20T00:23:00.324Z,14.60
2023-05-20T00:25:27.446Z,14.60
2023-05-20T00:27:54.459Z,14.60
2023-05-20T00:30:22.366Z,14.60
2023-05-20T00:32:49.466Z,14.70
2023-05-20T00:35:16.548Z,14.70
2023-05-20T00:37:43.650Z,14.70
2023-05-20T00:40:13.008Z,14.70
2023-05-20T00:42:41.264Z,14.70
2023-05-20T00:45:08.901Z,14.60
2023-05-20T00:47:39.297Z,14.60
2023-05-20T00:50:10.218Z,14.60
2023-05-20T00:52:38.095Z,14.50
2023-05-20T00:55:05.575Z,14.40
2023-05-20T00:57:32.571Z,14.40
2023-05-20T00:59:59.833Z,14.40
2023-05-20T01:02:27.330Z,14.30
2023-05-20T01:04:56.735Z,14.20
2023-05-20T01:07:25.596Z,14.30
2023-05-20T01:09:54.396Z,14.20
2023-05-20T01:12:30.445Z,14.20
2023-05-20T01:15:17.341Z,14.20
2023-05-20T01:17:47.210Z,14.20
2023-05-20T01:20:15.750Z,14.20
2023-05-20T01:23:09.009Z,14.20
2023-05-20T01:25:36.018Z,14.20
2023-05-20T01:28:03.285Z,14.20
2023-05-20T01:30:36.055Z,14.20
2023-05-20T01:33:07.736Z,14.20
2023-05-20T01:35:35.983Z,14.20
2023-05-20T01:38:06.300Z,14.30
2023-05-20T01:40:34.687Z,14.30
2023-05-20T01:43:03.515Z,14.30
2023-05-20T01:45:31.389Z,14.30
2023-05-20T01:48:00.117Z,14.30
2023-05-20T01:50:27.160Z,14.30
2023-05-20T01:52:54.206Z,14.30
2023-05-20T01:55:21.232Z,14.40
2023-05-20T01:57:48.289Z,14.40
2023-05-20T02:00:15.469Z,14.40
2023-05-20T02:02:44.848Z,14.40
2023-05-20T02:05:14.030Z,14.40
2023-05-20T02:07:43.494Z,14.40
2023-05-20T02:10:11.025Z,14.40
2023-05-20T02:12:38.359Z,14.40
2023-05-20T02:15:06.499Z,14.40
2023-05-20T02:17:33.645Z,14.40
2023-05-20T02:20:00.704Z,14.40
2023-05-20T02:22:27.713Z,14.40
2023-05-20T02:24:54.655Z,14.40
2023-05-20T02:27:21.690Z,14.30
2023-05-20T02:29:48.722Z,14.30
2023-05-20T02:32:15.758Z,14.30
2023-05-20T02:34:42.811Z,14.30
2023-05-20T02:37:09.826Z,14.30
2023-05-20T02:39:37.714Z,14.30
2023-05-20T02:42:04.842Z,14.30
2023-05-20T02:44:31.894Z,14.30
2023-05-20T02:46:58.926Z,14.30
2023-05-20T02:49:26.558Z,14.30
2023-05-20T02:51:53.534Z,14.20
2023-05-20T02:54:20.569Z,14.30
2023-05-20T02:56:47.525Z,14.20
2023-05-20T02:59:14.780Z,14.20
2023-05-20T03:01:41.948Z,14.20
2023-05-20T03:04:09.697Z,14.20
2023-05-20T03:06:38.318Z,14.20
2023-05-20T03:09:06.793Z,14.20
2023-05-20T03:11:34.354Z,14.10
2023-05-20T03:14:01.439Z,14.20
2023-05-20T03:16:28.950Z,14.10
2023-05-20T03:18:56.048Z,14.10
2023-05-20T03:21:24.003Z,14.10
2023-05-20T03:23:51.326Z,14.00
2023-05-20T03:26:19.245Z,14.00
2023-05-20T03:28:46.210Z,14.00
2023-05-20T03:31:13.432Z,14.00
2023-05-20T03:33:40.750Z,13.90
2023-05-20T03:36:07.907Z,13.80
2023-05-20T03:38:35.284Z,13.80
2023-05-20T03:41:02.536Z,13.70
2023-05-20T03:43:29.633Z,13.70
2023-05-20T03:45:57.018Z,13.70
2023-05-20T03:48:24.087Z,13.60
2023-05-20T03:50:51.180Z,13.50
2023-05-20T03:53:20.175Z,13.50
2023-05-20T03:55:47.205Z,13.50
2023-05-20T03:58:15.557Z,13.50
2023-05-20T04:00:42.962Z,13.50
2023-05-20T04:03:11.673Z,13.50
2023-05-20T04:05:39.646Z,13.60
2023-05-20T04:08:14.833Z,13.60
2023-05-20T04:10:42.905Z,13.50
2023-05-20T04:13:11.945Z,13.50
2023-05-20T04:15:39.493Z,13.50
2023-05-20T04:18:06.579Z,13.50
2023-05-20T04:20:33.837Z,13.40
2023-05-20T04:23:01.125Z,13.40
2023-05-20T04:25:28.178Z,13.30
2023-05-20T04:27:57.801Z,13.30
2023-05-20T04:30:25.234Z,13.30
2023-05-20T04:32:52.597Z,13.20
2023-05-20T04:35:20.096Z,13.20
2023-05-20T04:37:49.233Z,13.20
2023-05-20T04:40:17.176Z,13.20
2023-05-20T04:42:44.950Z,13.20
2023-05-20T04:45:13.709Z,13.20
2023-05-20T04:47:42.129Z,13.20
2023-05-20T04:50:16.333Z,13.20
2023-05-20T04:52:43.826Z,13.20
2023-05-20T04:55:12.073Z,13.20
2023-05-20T04:57:43.650Z,13.20
2023-05-20T05:00:12.639Z,13.20
2023-05-20T05:02:40.676Z,13.20
2023-05-20T05:05:08.241Z,13.20
2023-05-20T05:07:35.407Z,13.20
2023-05-20T05:10:02.513Z,13.30
2023-05-20T05:12:31.254Z,13.30
2023-05-20T05:14:59.355Z,13.30
2023-05-20T05:17:28.980Z,13.30
2023-05-20T05:19:57.483Z,13.40
2023-05-20T05:22:26.060Z,13.50
2023-05-20T05:24:53.210Z,13.50
2023-05-20T05:27:22.984Z,13.60
2023-05-20T05:29:50.431Z,13.70
2023-05-20T05:32:18.284Z,13.80
2023-05-20T05:34:45.387Z,14.00
2023-05-20T05:37:12.748Z,14.10
2023-05-20T05:39:40.332Z,14.20
2023-05-20T05:42:07.434Z,14.30
2023-05-20T05:44:35.028Z,14.40
2023-05-20T05:47:04.242Z,14.40
2023-05-20T05:49:32.168Z,14.50
2023-05-20T05:51:59.363Z,14.50
2023-05-20T05:54:26.734Z,14.60
2023-05-20T05:56:54.542Z,14.60
2023-05-20T05:59:21.735Z,14.70
2023-05-20T06:01:49.306Z,14.70
2023-05-20T06:04:17.002Z,14.80
2023-05-20T06:06:44.146Z,14.90
2023-05-20T06:09:11.528Z,15.00
2023-05-20T06:11:38.566Z,15.10
2023-05-20T06:14:05.620Z,15.20
2023-05-20T06:16:32.842Z,15.30
2023-05-20T06:19:03.395Z,15.50
2023-05-20T06:21:32.673Z,15.60
2023-05-20T06:24:00.143Z,15.80
2023-05-20T06:26:27.366Z,15.90
2023-05-20T06:28:54.894Z,16.00
2023-05-20T06:31:22.850Z,16.10
2023-05-20T06:33:51.824Z,16.20
2023-05-20T06:36:19.106Z,16.30
2023-05-20T06:38:47.196Z,16.30
2023-05-20T06:41:16.151Z,16.30
2023-05-20T06:43:43.135Z,16.20
2023-05-20T06:46:18.870Z,16.20
2023-05-20T06:48:51.296Z,16.10
2023-05-20T06:51:19.214Z,16.10
2023-05-20T06:53:48.959Z,16.20
2023-05-20T06:56:16.626Z,16.20
2023-05-20T06:58:44.184Z,16.30
2023-05-20T07:01:11.556Z,16.30
2023-05-20T07:03:39.845Z,16.40
2023-05-20T07:06:07.389Z,16.50
2023-05-20T07:08:35.025Z,16.50
2023-05-20T07:11:02.276Z,16.60
2023-05-20T07:13:30.775Z,16.70
2023-05-20T07:15:58.825Z,16.90
2023-05-20T07:18:28.508Z,17.00
2023-05-20T07:20:57.760Z,17.20
2023-05-20T07:23:56.995Z,17.30
2023-05-20T07:26:24.349Z,17.40
2023-05-20T07:28:52.111Z,17.40
2023-05-20T07:31:19.305Z,17.50
2023-05-20T07:33:46.401Z,17.80
2023-05-20T07:36:13.532Z,18.00
2023-05-20T07:38:49.963Z,18.20
2023-05-20T07:41:28.986Z,18.40
2023-05-20T07:43:56.350Z,18.80
2023-05-20T07:46:23.440Z,19.20
2023-05-20T07:48:50.455Z,19.60
2023-05-20T07:51:18.925Z,20.00
2023-05-20T07:53:46.059Z,20.00
2023-05-20T07:56:13.062Z,19.80
2023-05-20T07:58:43.286Z,19.70
2023-05-20T08:01:11.763Z,19.50
2023-05-20T08:03:39.032Z,19.40
2023-05-20T08:06:10.918Z,19.40
2023-05-20T08:08:40.547Z,19.30
2023-05-20T08:11:13.551Z,19.20
2023-05-20T08:13:41.283Z,19.20
2023-05-20T08:16:08.516Z,19.20
2023-05-20T08:18:39.689Z,19.30
2023-05-20T08:21:10.090Z,19.30
2023-05-20T08:23:39.680Z,19.30
2023-05-20T08:26:07.790Z,19.40
2023-05-20T08:28:38.169Z,19.40
2023-05-20T08:31:05.744Z,19.40
2023-05-20T08:33:35.444Z,19.40
2023-05-20T08:36:02.682Z,19.30
2023-05-20T08:38:30.248Z,19.40
2023-05-20T08:40:58.030Z,19.40
2023-05-20T08:43:26.540Z,19.60
2023-05-20T08:45:53.766Z,19.60
2023-05-20T08:48:27.967Z,19.70
2023-05-20T08:50:57.718Z,19.70
2023-05-20T08:53:24.686Z,19.80
2023-05-20T08:56:01.480Z,19.90
2023-05-20T08:58:30.005Z,19.90
2023-05-20T09:00:59.014Z,20.00
2023-05-20T09:03:26.105Z,20.10
2023-05-20T09:05:54.155Z,20.20
2023-05-20T09:08:29.034Z,20.40
2023-05-20T09:10:56.130Z,20.60
2023-05-20T09:13:24.577Z,20.70
2023-05-20T09:15:51.695Z,20.70
2023-05-20T09:18:18.945Z,20.90
2023-05-20T09:20:48.106Z,21.00
2023-05-20T09:23:15.079Z,21.20
2023-05-20T09:25:42.160Z,21.30
2023-05-20T09:28:09.490Z,21.60
2023-05-20T09:30:36.731Z,21.80
2023-05-20T09:33:05.476Z,22.00
2023-05-20T09:35:37.541Z,21.90
2023-05-20T09:38:06.637Z,21.70
2023-05-20T09:40:33.809Z,21.70
2023-05-20T09:43:03.823Z,21.80
2023-05-20T09:45:31.280Z,21.90
2023-05-20T09:48:00.172Z,22.10
2023-05-20T09:50:28.860Z,22.00
2023-05-20T09:52:56.387Z,21.80
2023-05-20T09:55:27.828Z,21.60
2023-05-20T09:57:56.452Z,21.50
2023-05-20T10:00:23.566Z,21.60
2023-05-20T10:02:52.241Z,21.90
2023-05-20T10:05:24.499Z,22.30
2023-05-20T10:07:57.658Z,23.00
2023-05-20T10:10:46.143Z,24.00
2023-05-20T10:13:16.192Z,24.50
2023-05-20T10:15:43.160Z,24.80
2023-05-20T10:18:13.273Z,25.00
2023-05-20T10:20:50.971Z,25.10
2023-05-20T10:23:27.948Z,25.30
2023-05-20T10:25:56.493Z,25.70
2023-05-20T10:28:37.793Z,26.40
2023-05-20T10:31:17.300Z,26.50
2023-05-20T10:33:45.972Z,26.20
2023-05-20T10:36:31.873Z,26.10
2023-05-20T10:39:00.069Z,26.20
2023-05-20T10:41:29.410Z,26.20
2023-05-20T10:44:04.078Z,26.50
2023-05-20T10:46:53.794Z,26.90
2023-05-20T10:49:26.852Z,26.90
2023-05-20T10:51:54.815Z,26.50
2023-05-20T10:54:22.977Z,26.30
2023-05-20T10:56:54.198Z,26.30
2023-05-20T10:59:22.217Z,26.60
2023-05-20T11:01:49.575Z,26.70
2023-05-20T11:04:17.646Z,26.70
2023-05-20T11:06:55.355Z,26.60
2023-05-20T11:09:22.952Z,26.10
2023-05-20T11:11:51.407Z,25.80
2023-05-20T11:14:20.220Z,25.50
2023-05-20T11:16:51.084Z,25.60
2023-05-20T11:19:19.184Z,26.20
2023-05-20T11:21:47.355Z,27.60
2023-05-20T11:24:15.157Z,29.30
2023-05-20T11:26:42.197Z,30.50
2023-05-20T11:29:09.340Z,30.60
2023-05-20T11:31:39.120Z,30.00
2023-05-20T11:34:06.251Z,29.30
2023-05-20T11:36:33.484Z,29.00
2023-05-20T11:39:00.993Z,29.10
2023-05-20T11:41:28.887Z,29.00
2023-05-20T11:43:58.361Z,29.00
2023-05-20T11:46:25.913Z,28.90
2023-05-20T11:48:57.171Z,29.20
2023-05-20T11:51:28.820Z,29.70
2023-05-20T11:54:02.817Z,30.30
2023-05-20T11:56:31.222Z,31.10
2023-05-20T11:58:59.740Z,31.50
2023-05-20T12:01:28.632Z,31.60
2023-05-20T12:03:55.832Z,31.60
2023-05-20T12:06:22.931Z,32.00
2023-05-20T12:08:49.793Z,33.20
2023-05-20T12:11:17.043Z,34.10
2023-05-20T12:13:44.011Z,34.30
2023-05-20T12:16:11.110Z,34.20
2023-05-20T12:18:38.175Z,34.70
2023-05-20T12:21:05.294Z,35.30
2023-05-20T12:23:34.413Z,35.40
2023-05-20T12:26:01.592Z,35.10
2023-05-20T12:28:28.616Z,34.60
2023-05-20T12:30:55.694Z,34.20
2023-05-20T12:33:22.762Z,34.00
2023-05-20T12:35:49.832Z,34.20
2023-05-20T12:38:16.877Z,34.30
2023-05-20T12:40:44.155Z,34.70
2023-05-20T12:43:11.178Z,34.70
2023-05-20T12:45:38.120Z,34.70
2023-05-20T12:48:07.884Z,34.50
2023-05-20T12:50:35.376Z,34.30
2023-05-20T12:53:02.683Z,34.40
2023-05-20T12:55:29.636Z,34.50
2023-05-20T12:57:56.719Z,34.50
2023-05-20T13:00:23.769Z,34.50
2023-05-20T13:02:50.972Z,34.20
2023-05-20T13:05:18.251Z,34.20
2023-05-20T13:07:45.794Z,34.20
2023-05-20T13:10:12.796Z,34.20
2023-05-20T13:12:40.444Z,33.90
2023-05-20T13:15:08.144Z,33.50
2023-05-20T13:17:35.108Z,33.10
2023-05-20T13:20:02.192Z,32.60
2023-05-20T13:22:29.134Z,32.10
2023-05-20T13:24:56.083Z,31.70
2023-05-20T13:27:23.136Z,31.20
2023-05-20T13:29:50.182Z,30.70
2023-05-20T13:32:17.276Z,30.30
2023-05-20T13:34:44.340Z,30.20
2023-05-20T13:37:11.341Z,30.00
2023-05-20T13:39:38.390Z,30.00
2023-05-20T13:42:05.608Z,30.20
2023-05-20T13:44:32.931Z,30.40
2023-05-20T13:47:00.230Z,30.50
2023-05-20T13:49:27.671Z,30.60
2023-05-20T13:51:54.702Z,30.60
2023-05-20T13:54:21.951Z,30.30
2023-05-20T13:56:49.111Z,29.80
2023-05-20T13:59:16.205Z,29.40
2023-05-20T14:01:46.636Z,29.10
2023-05-20T14:04:13.649Z,28.70
2023-05-20T14:06:40.841Z,28.50
2023-05-20T14:09:11.204Z,28.30
2023-05-20T14:11:38.350Z,28.10
2023-05-20T14:14:05.351Z,28.00
2023-05-20T14:16:33.033Z,27.90
2023-05-20T14:19:00.134Z,27.70
2023-05-20T14:21:27.233Z,27.60
2023-05-20T14:23:54.232Z,27.50
2023-05-20T14:26:21.798Z,27.30
2023-05-20T14:28:49.106Z,27.10
2023-05-20T14:31:16.367Z,27.00
2023-05-20T14:33:43.550Z,26.80
2023-05-20T14:36:11.318Z,26.80
2023-05-20T14:38:38.534Z,26.80
2023-05-20T14:41:05.480Z,26.70
2023-05-20T14:43:32.562Z,26.70
2023-05-20T14:46:04.052Z,26.60
2023-05-20T14:48:31.135Z,26.50
2023-05-20T14:50:58.104Z,26.40
2023-05-20T14:53:25.114Z,26.30
2023-05-20T14:55:52.044Z,26.30
2023-05-20T14:58:18.992Z,26.20
2023-05-20T15:00:46.131Z,26.10
2023-05-20T15:03:13.353Z,26.00
2023-05-20T15:05:41.324Z,25.80
2023-05-20T15:08:08.393Z,25.70
2023-05-20T15:10:35.561Z,25.60
2023-05-20T15:13:02.612Z,25.50
2023-05-20T15:15:29.598Z,25.40
2023-05-20T15:17:56.812Z,25.20
2023-05-20T15:20:23.890Z,25.10
2023-05-20T15:22:50.852Z,25.00
2023-05-20T15:25:17.912Z,24.90
2023-05-20T15:27:44.872Z,24.80
2023-05-20T15:30:12.581Z,24.70
2023-05-20T15:32:40.088Z,24.60
2023-05-20T15:35:07.802Z,24.60
2023-05-20T15:37:34.900Z,24.60
2023-05-20T15:40:02.221Z,24.50
2023-05-20T15:42:29.356Z,24.50
2023-05-20T15:44:56.401Z,24.50
2023-05-20T15:47:23.507Z,24.50
2023-05-20T15:49:50.795Z,24.50
2023-05-20T15:52:17.822Z,24.40
2023-05-20T15:54:56.142Z,24.30
2023-05-20T15:57:26.193Z,24.30
2023-05-20T15:59:53.233Z,24.30
2023-05-20T16:02:20.298Z,24.20
2023-05-20T16:04:47.658Z,24.20
2023-05-20T16:07:14.971Z,24.20
2023-05-20T16:09:41.916Z,24.20
2023-05-20T16:12:08.883Z,24.20
2023-05-20T16:14:36.167Z,24.20
2023-05-20T16:17:03.208Z,24.10
2023-05-20T16:19:30.397Z,24.10
2023-05-20T16:21:57.474Z,24.20
2023-05-20T16:24:24.442Z,24.10
2023-05-20T16:26:51.708Z,24.10
2023-05-20T16:29:18.664Z,24.20
2023-05-20T16:31:47.133Z,24.20
2023-05-20T16:34:15.800Z,24.20
2023-05-20T16:36:42.736Z,24.10
2023-05-20T16:39:09.658Z,24.10
2023-05-20T16:41:36.798Z,24.00
2023-05-20T16:44:03.818Z,23.90
2023-05-20T16:46:30.750Z,23.90
2023-05-20T16:48:57.709Z,23.90
2023-05-20T16:51:24.957Z,23.90
2023-05-20T16:53:52.239Z,23.80
2023-05-20T16:56:20.154Z,23.80
2023-05-20T16:58:47.335Z,23.80
2023-05-20T17:01:14.402Z,23.70
2023-05-20T17:03:41.485Z,23.70
2023-05-20T17:06:09.439Z,23.70
2023-05-20T17:08:38.114Z,23.50
2023-05-20T17:11:05.371Z,23.50
2023-05-20T17:13:32.295Z,23.40
2023-05-20T17:15:59.704Z,23.40
2023-05-20T17:18:26.639Z,23.30
2023-05-20T17:20:53.698Z,23.20
2023-05-20T17:23:20.620Z,23.10
2023-05-20T17:25:47.575Z,23.10
2023-05-20T17:28:14.494Z,22.90
2023-05-20T17:30:41.390Z,22.90
2023-05-20T17:33:08.356Z,22.80
2023-05-20T17:35:36.176Z,22.80
2023-05-20T17:38:03.143Z,22.80
2023-05-20T17:40:30.640Z,22.70
2023-05-20T17:42:57.646Z,22.70
2023-05-20T17:45:24.807Z,22.50
2023-05-20T17:47:51.944Z,22.50
2023-05-20T17:50:18.953Z,22.40
2023-05-20T17:52:46.654Z,22.30
2023-05-20T17:55:14.563Z,22.20
2023-05-20T17:57:41.692Z,22.10
2023-05-20T18:00:09.386Z,22.10
2023-05-20T18:02:38.373Z,22.00
2023-05-20T18:05:06.528Z,21.90
2023-05-20T18:07:33.546Z,21.90
2023-05-20T18:10:00.484Z,21.80
2023-05-20T18:12:27.502Z,21.70
2023-05-20T18:14:54.501Z,21.70
2023-05-20T18:17:21.663Z,21.60
2023-05-20T18:19:48.776Z,21.60
2023-05-20T18:22:15.934Z,21.50
2023-05-20T18:24:43.062Z,21.50
2023-05-20T18:27:10.076Z,21.40
2023-05-20T18:29:37.088Z,21.30
2023-05-20T18:32:04.454Z,21.30
2023-05-20T18:34:33.216Z,21.20
2023-05-20T18:37:00.682Z,21.20
2023-05-20T18:39:27.679Z,21.10
2023-05-20T18:41:54.713Z,21.10
2023-05-20T18:44:21.707Z,21.00
2023-05-20T18:46:48.676Z,20.90
2023-05-20T18:49:15.979Z,20.90
2023-05-20T18:51:43.069Z,20.80
2023-05-20T18:54:10.075Z,20.80
2023-05-20T18:56:37.102Z,20.70
2023-05-20T18:59:04.065Z,20.60
2023-05-20T19:01:31.286Z,20.60
2023-05-20T19:03:58.315Z,20.60
2023-05-20T19:06:25.841Z,20.50
2023-05-20T19:08:53.058Z,20.50
2023-05-20T19:11:20.013Z,20.50
2023-05-20T19:13:46.927Z,20.50
2023-05-20T19:16:14.052Z,20.40
2023-05-20T19:18:41.103Z,20.40
2023-05-20T19:21:08.100Z,20.40
2023-05-20T19:23:35.043Z,20.30
2023-05-20T19:26:02.431Z,20.30
2023-05-20T19:28:29.529Z,20.20
2023-05-20T19:30:56.565Z,20.20
2023-05-20T19:33:23.599Z,20.20
2023-05-20T19:35:50.968Z,20.20
2023-05-20T19:38:17.938Z,20.00
2023-05-20T19:40:45.200Z,20.00
2023-05-20T19:43:12.191Z,19.90
2023-05-20T19:45:39.320Z,19.90
2023-05-20T19:48:06.953Z,19.90
2023-05-20T19:50:34.551Z,19.80
2023-05-20T19:53:06.180Z,19.80
2023-05-20T19:55:34.737Z,19.70
2023-05-20T19:58:02.030Z,19.70
2023-05-20T20:00:29.613Z,19.70
2023-05-20T20:02:57.798Z,19.60
2023-05-20T20:05:25.973Z,19.50
2023-05-20T20:07:53.211Z,19.50
2023-05-20T20:10:20.404Z,19.40
2023-05-20T20:12:47.520Z,19.30
2023-05-20T20:15:14.577Z,19.30
2023-05-20T20:17:45.567Z,19.20
2023-05-20T20:20:14.139Z,19.10
2023-05-20T20:22:42.140Z,19.10
2023-05-20T20:25:09.535Z,19.00
2023-05-20T20:27:36.578Z,18.90
2023-05-20T20:30:03.936Z,18.90
2023-05-20T20:32:30.895Z,18.80
2023-05-20T20:34:58.318Z,18.70
2023-05-20T20:37:26.860Z,18.70
2023-05-20T20:39:55.282Z,18.60
2023-05-20T20:42:25.060Z,18.50
2023-05-20T20:44:52.638Z,18.50
2023-05-20T20:47:19.631Z,18.40
2023-05-20T20:49:46.639Z,18.30
2023-05-20T20:52:13.609Z,18.30
2023-05-20T20:54:42.961Z,18.30
2023-05-20T20:57:11.507Z,18.20
2023-05-20T20:59:39.873Z,18.20
2023-05-20T21:02:07.042Z,18.20
2023-05-20T21:04:34.208Z,18.10
2023-05-20T21:07:02.167Z,18.10
2023-05-20T21:09:29.350Z,18.10
2023-05-20T21:11:57.298Z,18.10
2023-05-20T21:14:25.347Z,18.10
2023-05-20T21:16:52.736Z,18.10
2023-05-20T21:19:21.979Z,18.10
2023-05-20T21:21:49.081Z,18.10
2023-05-20T21:24:16.033Z,18.10
2023-05-20T21:26:43.008Z,18.10
2023-05-20T21:29:12.083Z,18.10
2023-05-20T21:31:39.225Z,18.10
2023-05-20T21:34:06.152Z,18.10
2023-05-20T21:36:33.142Z,18.10
2023-05-20T21:39:00.040Z,18.10
2023-05-20T21:41:27.302Z,18.20
2023-05-20T21:43:54.372Z,18.10
2023-05-20T21:46:21.489Z,18.10
2023-05-20T21:48:48.573Z,18.10
2023-05-20T21:51:15.748Z,18.10
2023-05-20T21:53:42.867Z,18.10
2023-05-20T21:56:09.872Z,18.10
2023-05-20T21:58:41.179Z,18.10
2023-05-20T22:01:09.974Z,18.00
2023-05-20T22:03:38.258Z,18.00
2023-05-20T22:06:06.382Z,18.00
2023-05-20T22:08:33.856Z,18.00
2023-05-20T22:11:05.589Z,18.00
2023-05-20T22:13:36.345Z,18.00
2023-05-20T22:16:04.895Z,18.00
2023-05-20T22:18:32.287Z,17.90
2023-05-20T22:20:59.452Z,17.90
2023-05-20T22:23:27.344Z,17.90
2023-05-20T22:25:55.145Z,17.90
2023-05-20T22:28:23.746Z,17.80
2023-05-20T22:30:51.554Z,17.80
2023-05-20T22:33:18.760Z,17.80
2023-05-20T22:35:45.839Z,17.80
2023-05-20T22:38:12.817Z,17.80
2023-05-20T22:40:39.790Z,17.70
2023-05-20T22:43:06.728Z,17.70
2023-05-20T22:45:33.793Z,17.80
2023-05-20T22:48:01.920Z,17.70
2023-05-20T22:50:29.059Z,17.70
2023-05-20T22:52:56.224Z,17.70
2023-05-20T22:55:24.031Z,17.70
2023-05-20T22:57:51.545Z,17.70
2023-05-20T23:00:18.978Z,17.70
2023-05-20T23:02:49.652Z,17.70
2023-05-20T23:05:17.382Z,17.70
2023-05-20T23:07:45.088Z,17.70
2023-05-20T23:10:12.327Z,17.60
2023-05-20T23:12:39.358Z,17.60
2023-05-20T23:15:06.938Z,17.50
2023-05-20T23:17:34.088Z,17.50
2023-05-20T23:20:01.229Z,17.50
2023-05-20T23:22:28.285Z,17.50
2023-05-20T23:24:55.189Z,17.40
2023-05-20T23:27:22.233Z,17.40
2023-05-20T23:29:49.172Z,17.30
2023-05-20T23:32:16.269Z,17.30
2023-05-20T23:34:43.555Z,17.30
2023-05-20T23:37:10.538Z,17.20
2023-05-20T23:39:37.552Z,17.10
2023-05-20T23:42:05.240Z,17.10
2023-05-20T23:44:32.161Z,17.10
2023-05-20T23:46:59.190Z,17.00
2023-05-20T23:49:27.233Z,16.90
2023-05-20T23:51:54.267Z,16.90
2023-05-20T23:54:22.830Z,16.90
2023-05-20T23:56:49.938Z,16.80
2023-05-20T23:59:17.059Z,16.90
